84XS weather

Lang Ranch Airport
Mountain Home, Texas, United States

Public forecast

Using degrees Fahrenheit for public forecast. Weather courtesy of forecast.io.

Closest aviation weather report (METAR) to Lang Ranch Airport

Closest report is Kerrville Municipal Louis Schreiner Field, 23.3 nm (43.2 km) SE. Retrieved 2019/10/18 23:35 UTC (0 seconds ago):

KERV 182335Z AUTO 17009KT 10SM CLR 26/13 A2974 RMK AO2 T02570128

Closest aviation forecast (TAF) to Lang Ranch Airport

Closest forecast is Kimble County Airport, 24.4 nm (45.1 km) NW. Retrieved 2019/10/18 18:22 UTC (5 hours ago):

TAF KJCT 181720Z 1818/1918 20010KT P6SM SKC FM190100 VRB06KT P6SM BKN080